aviador You're here:

GMFO Decoded Metar

OUJDA in MOROCCO
Report Time2017-09-23 18:00:00
UTC Time2017-09-23 18:24:23
Flight Rules vfr VFR
Wind330° at 13 kt
W.Decomp.*RWY 31: 12.1 kt HW 4.7 kt RCW
RWY 06: 0.2 kt HW 13 kt LCW
W.Rank330° ranks 10
Current wind is above 330° avg. (7.1)
Visibility9999 m
Phenomena:N/A
Clouds:Few 020 Hf
Expected CloudBase > 2,800 ft AGL from Temp-Dew spread
CeilingNone
Temp23°C (ISA +11)
Dew Point16°C (65% RH)
AAT20.3°C
QNH1019 hPa
Density Alt2,871 ft
Elevation1,542 ft
Report Wrong Elevation
Raw Report
GMFO 231800Z 33013KT 9999 FEW020 23/16 Q1019 NOSIG=

Extra information for GMFO:More info

Metar Taf Metar & Taf Last 4 Metars F.Rules Stats Wind Profile Meteogram Temp Stats Airport Information Weather charts Add Link Nearby VenuesMetar ALERT Operation Metar Decoded Social comments